sensor_id;sensor_type;location;lat;lon;timestamp;P1;durP1;ratioP1;P2;durP2;ratioP2
47309;SDS011;33046;52.270;6.832;2023-09-30T00:01:10;13.48;;;3.30;;
47309;SDS011;33046;52.270;6.832;2023-09-30T00:03:17;13.40;;;3.50;;
47309;SDS011;33046;52.270;6.832;2023-09-30T00:05:24;14.55;;;3.15;;
47309;SDS011;33046;52.270;6.832;2023-09-30T00:07:31;9.30;;;3.00;;
47309;SDS011;33046;52.270;6.832;2023-09-30T00:09:38;9.13;;;3.10;;
47309;SDS011;33046;52.270;6.832;2023-09-30T00:11:46;10.00;;;2.50;;
47309;SDS011;33046;52.270;6.832;2023-09-30T00:13:53;7.00;;;2.97;;
47309;SDS011;33046;52.270;6.832;2023-09-30T00:16:00;12.88;;;2.75;;
47309;SDS011;33046;52.270;6.832;2023-09-30T00:18:07;10.60;;;3.00;;
47309;SDS011;33046;52.270;6.832;2023-09-30T00:20:14;9.82;;;2.50;;
47309;SDS011;33046;52.270;6.832;2023-09-30T00:22:20;8.45;;;2.45;;
47309;SDS011;33046;52.270;6.832;2023-09-30T00:24:27;9.98;;;2.55;;
47309;SDS011;33046;52.270;6.832;2023-09-30T00:26:34;10.40;;;2.97;;
47309;SDS011;33046;52.270;6.832;2023-09-30T00:28:42;7.13;;;2.40;;
47309;SDS011;33046;52.270;6.832;2023-09-30T00:30:49;7.63;;;2.28;;
47309;SDS011;33046;52.270;6.832;2023-09-30T00:32:56;12.63;;;3.25;;
47309;SDS011;33046;52.270;6.832;2023-09-30T00:35:03;7.03;;;2.47;;
47309;SDS011;33046;52.270;6.832;2023-09-30T00:37:11;9.00;;;2.08;;
47309;SDS011;33046;52.270;6.832;2023-09-30T00:39:17;9.85;;;3.63;;
47309;SDS011;33046;52.270;6.832;2023-09-30T00:41:24;7.25;;;3.00;;
47309;SDS011;33046;52.270;6.832;2023-09-30T00:43:31;7.40;;;2.45;;
47309;SDS011;33046;52.270;6.832;2023-09-30T00:45:39;10.93;;;3.22;;
47309;SDS011;33046;52.270;6.832;2023-09-30T00:47:47;13.50;;;4.03;;
47309;SDS011;33046;52.270;6.832;2023-09-30T00:49:54;9.55;;;3.00;;
47309;SDS011;33046;52.270;6.832;2023-09-30T00:52:01;6.00;;;2.15;;
47309;SDS011;33046;52.270;6.832;2023-09-30T00:54:10;7.38;;;2.42;;
47309;SDS011;33046;52.270;6.832;2023-09-30T00:56:18;10.80;;;3.13;;
47309;SDS011;33046;52.270;6.832;2023-09-30T00:58:25;7.32;;;2.50;;
47309;SDS011;33046;52.270;6.832;2023-09-30T01:00:34;11.48;;;2.38;;
47309;SDS011;33046;52.270;6.832;2023-09-30T01:02:44;11.30;;;2.25;;
47309;SDS011;33046;52.270;6.832;2023-09-30T01:04:51;10.52;;;2.60;;
47309;SDS011;33046;52.270;6.832;2023-09-30T01:06:58;9.13;;;2.90;;
47309;SDS011;33046;52.270;6.832;2023-09-30T01:09:24;9.02;;;2.70;;
47309;SDS011;33046;52.270;6.832;2023-09-30T01:14:42;9.90;;;2.90;;
47309;SDS011;33046;52.270;6.832;2023-09-30T01:19:17;8.10;;;2.63;;
47309;SDS011;33046;52.270;6.832;2023-09-30T01:21:24;8.45;;;3.33;;
47309;SDS011;33046;52.270;6.832;2023-09-30T01:23:33;7.38;;;2.58;;
47309;SDS011;33046;52.270;6.832;2023-09-30T01:25:40;9.32;;;3.08;;
47309;SDS011;33046;52.270;6.832;2023-09-30T01:27:47;10.00;;;2.83;;
47309;SDS011;33046;52.270;6.832;2023-09-30T01:29:54;12.63;;;3.50;;
47309;SDS011;33046;52.270;6.832;2023-09-30T01:32:00;9.38;;;4.07;;
47309;SDS011;33046;52.270;6.832;2023-09-30T01:34:07;10.13;;;2.80;;
47309;SDS011;33046;52.270;6.832;2023-09-30T01:36:14;9.20;;;3.00;;
47309;SDS011;33046;52.270;6.832;2023-09-30T01:38:23;11.55;;;2.90;;
47309;SDS011;33046;52.270;6.832;2023-09-30T01:40:31;9.45;;;3.38;;
47309;SDS011;33046;52.270;6.832;2023-09-30T01:42:38;8.95;;;3.13;;
47309;SDS011;33046;52.270;6.832;2023-09-30T01:44:44;8.98;;;3.42;;
47309;SDS011;33046;52.270;6.832;2023-09-30T01:46:51;8.98;;;2.80;;
47309;SDS011;33046;52.270;6.832;2023-09-30T01:48:58;9.27;;;3.30;;
47309;SDS011;33046;52.270;6.832;2023-09-30T01:51:05;6.90;;;2.33;;
47309;SDS011;33046;52.270;6.832;2023-09-30T01:53:12;15.18;;;3.05;;
47309;SDS011;33046;52.270;6.832;2023-09-30T01:55:19;8.20;;;2.60;;
47309;SDS011;33046;52.270;6.832;2023-09-30T01:57:27;9.20;;;2.90;;
47309;SDS011;33046;52.270;6.832;2023-09-30T01:59:34;7.25;;;4.15;;
47309;SDS011;33046;52.270;6.832;2023-09-30T02:01:41;8.77;;;2.92;;
47309;SDS011;33046;52.270;6.832;2023-09-30T02:03:48;8.93;;;3.35;;
47309;SDS011;33046;52.270;6.832;2023-09-30T02:06:41;10.85;;;3.90;;
47309;SDS011;33046;52.270;6.832;2023-09-30T02:08:48;9.20;;;3.88;;
47309;SDS011;33046;52.270;6.832;2023-09-30T02:10:55;9.38;;;3.75;;
47309;SDS011;33046;52.270;6.832;2023-09-30T02:13:03;13.75;;;4.97;;
47309;SDS011;33046;52.270;6.832;2023-09-30T02:15:10;9.80;;;3.20;;
47309;SDS011;33046;52.270;6.832;2023-09-30T02:17:18;10.85;;;3.22;;
47309;SDS011;33046;52.270;6.832;2023-09-30T02:19:24;14.35;;;5.10;;
47309;SDS011;33046;52.270;6.832;2023-09-30T02:21:31;14.43;;;4.63;;
47309;SDS011;33046;52.270;6.832;2023-09-30T02:23:38;9.93;;;3.38;;
47309;SDS011;33046;52.270;6.832;2023-09-30T02:25:45;10.52;;;3.97;;
47309;SDS011;33046;52.270;6.832;2023-09-30T02:27:52;8.13;;;3.85;;
47309;SDS011;33046;52.270;6.832;2023-09-30T02:30:00;13.65;;;4.70;;
47309;SDS011;33046;52.270;6.832;2023-09-30T02:32:07;11.57;;;3.83;;
47309;SDS011;33046;52.270;6.832;2023-09-30T02:34:14;6.53;;;3.25;;
47309;SDS011;33046;52.270;6.832;2023-09-30T02:36:21;13.38;;;3.85;;
47309;SDS011;33046;52.270;6.832;2023-09-30T02:38:29;10.77;;;3.55;;
47309;SDS011;33046;52.270;6.832;2023-09-30T02:40:36;7.97;;;3.75;;
47309;SDS011;33046;52.270;6.832;2023-09-30T02:42:42;9.50;;;3.95;;
47309;SDS011;33046;52.270;6.832;2023-09-30T02:44:49;11.57;;;3.85;;
47309;SDS011;33046;52.270;6.832;2023-09-30T02:46:57;7.75;;;3.45;;
47309;SDS011;33046;52.270;6.832;2023-09-30T02:49:04;9.60;;;4.53;;
47309;SDS011;33046;52.270;6.832;2023-09-30T02:51:11;12.70;;;4.50;;
47309;SDS011;33046;52.270;6.832;2023-09-30T02:53:18;8.55;;;4.70;;
47309;SDS011;33046;52.270;6.832;2023-09-30T02:55:25;9.25;;;3.83;;
47309;SDS011;33046;52.270;6.832;2023-09-30T02:57:32;9.48;;;4.15;;
47309;SDS011;33046;52.270;6.832;2023-09-30T02:59:39;10.60;;;3.85;;
47309;SDS011;33046;52.270;6.832;2023-09-30T03:01:45;9.68;;;3.35;;
47309;SDS011;33046;52.270;6.832;2023-09-30T03:06:28;10.25;;;3.85;;
47309;SDS011;33046;52.270;6.832;2023-09-30T03:08:56;11.43;;;4.25;;
47309;SDS011;33046;52.270;6.832;2023-09-30T03:11:18;11.15;;;4.45;;
47309;SDS011;33046;52.270;6.832;2023-09-30T03:14:11;11.80;;;4.22;;
47309;SDS011;33046;52.270;6.832;2023-09-30T03:16:17;9.85;;;4.50;;
47309;SDS011;33046;52.270;6.832;2023-09-30T03:18:24;11.13;;;4.30;;
47309;SDS011;33046;52.270;6.832;2023-09-30T03:20:32;11.38;;;4.72;;
47309;SDS011;33046;52.270;6.832;2023-09-30T03:22:39;11.13;;;4.65;;
47309;SDS011;33046;52.270;6.832;2023-09-30T03:24:47;17.35;;;5.53;;
47309;SDS011;33046;52.270;6.832;2023-09-30T03:26:53;10.23;;;4.32;;
47309;SDS011;33046;52.270;6.832;2023-09-30T03:29:00;13.30;;;5.45;;
47309;SDS011;33046;52.270;6.832;2023-09-30T03:31:07;9.95;;;3.95;;
47309;SDS011;33046;52.270;6.832;2023-09-30T03:33:14;7.80;;;4.50;;
47309;SDS011;33046;52.270;6.832;2023-09-30T03:35:21;10.23;;;4.32;;
47309;SDS011;33046;52.270;6.832;2023-09-30T03:37:29;10.82;;;4.53;;
47309;SDS011;33046;52.270;6.832;2023-09-30T03:39:37;8.05;;;4.22;;
47309;SDS011;33046;52.270;6.832;2023-09-30T03:41:44;11.73;;;5.05;;
47309;SDS011;33046;52.270;6.832;2023-09-30T03:43:51;12.00;;;5.35;;
47309;SDS011;33046;52.270;6.832;2023-09-30T03:45:58;7.55;;;4.00;;
47309;SDS011;33046;52.270;6.832;2023-09-30T03:48:05;8.32;;;4.15;;
47309;SDS011;33046;52.270;6.832;2023-09-30T03:50:12;11.25;;;5.85;;
47309;SDS011;33046;52.270;6.832;2023-09-30T03:52:18;10.15;;;5.13;;
47309;SDS011;33046;52.270;6.832;2023-09-30T03:54:27;13.20;;;5.55;;
47309;SDS011;33046;52.270;6.832;2023-09-30T03:56:33;18.45;;;6.20;;
47309;SDS011;33046;52.270;6.832;2023-09-30T03:58:41;10.90;;;4.57;;
47309;SDS011;33046;52.270;6.832;2023-09-30T04:00:48;10.10;;;4.95;;
47309;SDS011;33046;52.270;6.832;2023-09-30T04:02:55;10.82;;;5.07;;
47309;SDS011;33046;52.270;6.832;2023-09-30T04:05:02;10.82;;;5.20;;
47309;SDS011;33046;52.270;6.832;2023-09-30T04:07:09;13.52;;;4.75;;
47309;SDS011;33046;52.270;6.832;2023-09-30T04:09:15;13.68;;;5.93;;
47309;SDS011;33046;52.270;6.832;2023-09-30T04:11:24;8.68;;;5.20;;
47309;SDS011;33046;52.270;6.832;2023-09-30T04:13:31;7.40;;;4.82;;
47309;SDS011;33046;52.270;6.832;2023-09-30T04:15:50;9.38;;;5.00;;
47309;SDS011;33046;52.270;6.832;2023-09-30T04:20:57;10.82;;;4.95;;
47309;SDS011;33046;52.270;6.832;2023-09-30T04:26:44;10.65;;;5.70;;
47309;SDS011;33046;52.270;6.832;2023-09-30T04:28:51;11.98;;;5.30;;
47309;SDS011;33046;52.270;6.832;2023-09-30T04:30:57;11.43;;;6.47;;
47309;SDS011;33046;52.270;6.832;2023-09-30T04:33:04;12.65;;;5.30;;
47309;SDS011;33046;52.270;6.832;2023-09-30T04:35:11;12.48;;;5.78;;
47309;SDS011;33046;52.270;6.832;2023-09-30T04:37:18;9.73;;;5.35;;
47309;SDS011;33046;52.270;6.832;2023-09-30T04:39:25;7.20;;;5.03;;
47309;SDS011;33046;52.270;6.832;2023-09-30T04:41:32;7.75;;;4.68;;
47309;SDS011;33046;52.270;6.832;2023-09-30T04:43:40;11.75;;;4.93;;
47309;SDS011;33046;52.270;6.832;2023-09-30T04:45:47;8.82;;;5.15;;
47309;SDS011;33046;52.270;6.832;2023-09-30T04:47:54;12.15;;;5.43;;
47309;SDS011;33046;52.270;6.832;2023-09-30T04:50:01;9.90;;;5.72;;
47309;SDS011;33046;52.270;6.832;2023-09-30T04:52:08;8.80;;;5.38;;
47309;SDS011;33046;52.270;6.832;2023-09-30T04:54:14;13.13;;;5.90;;
47309;SDS011;33046;52.270;6.832;2023-09-30T04:56:21;15.68;;;7.38;;
47309;SDS011;33046;52.270;6.832;2023-09-30T04:58:28;11.85;;;5.65;;
47309;SDS011;33046;52.270;6.832;2023-09-30T05:00:36;18.33;;;9.13;;
47309;SDS011;33046;52.270;6.832;2023-09-30T05:02:43;11.82;;;6.43;;
47309;SDS011;33046;52.270;6.832;2023-09-30T05:04:50;9.65;;;6.03;;
47309;SDS011;33046;52.270;6.832;2023-09-30T05:06:57;10.75;;;6.55;;
47309;SDS011;33046;52.270;6.832;2023-09-30T05:09:04;9.65;;;6.50;;
47309;SDS011;33046;52.270;6.832;2023-09-30T05:11:11;12.65;;;7.07;;
47309;SDS011;33046;52.270;6.832;2023-09-30T05:13:18;12.25;;;6.85;;
47309;SDS011;33046;52.270;6.832;2023-09-30T05:15:31;14.07;;;7.00;;
47309;SDS011;33046;52.270;6.832;2023-09-30T05:21:23;8.85;;;6.22;;
47309;SDS011;33046;52.270;6.832;2023-09-30T05:23:30;10.48;;;6.70;;
47309;SDS011;33046;52.270;6.832;2023-09-30T05:25:36;16.30;;;8.50;;
47309;SDS011;33046;52.270;6.832;2023-09-30T05:27:43;11.88;;;6.28;;
47309;SDS011;33046;52.270;6.832;2023-09-30T05:29:50;11.23;;;7.50;;
47309;SDS011;33046;52.270;6.832;2023-09-30T05:31:57;11.15;;;7.35;;
47309;SDS011;33046;52.270;6.832;2023-09-30T05:34:04;10.10;;;6.22;;
47309;SDS011;33046;52.270;6.832;2023-09-30T05:36:11;12.23;;;6.80;;
47309;SDS011;33046;52.270;6.832;2023-09-30T05:38:19;10.38;;;7.20;;
47309;SDS011;33046;52.270;6.832;2023-09-30T05:40:26;10.10;;;6.25;;
47309;SDS011;33046;52.270;6.832;2023-09-30T05:42:33;9.02;;;6.30;;
47309;SDS011;33046;52.270;6.832;2023-09-30T05:44:40;11.23;;;7.28;;
47309;SDS011;33046;52.270;6.832;2023-09-30T05:46:47;10.93;;;6.18;;
47309;SDS011;33046;52.270;6.832;2023-09-30T05:48:53;10.18;;;6.95;;
47309;SDS011;33046;52.270;6.832;2023-09-30T05:51:00;8.23;;;6.32;;
47309;SDS011;33046;52.270;6.832;2023-09-30T05:53:07;12.57;;;7.72;;
47309;SDS011;33046;52.270;6.832;2023-09-30T05:55:16;10.05;;;6.70;;
47309;SDS011;33046;52.270;6.832;2023-09-30T05:57:22;12.85;;;7.13;;
47309;SDS011;33046;52.270;6.832;2023-09-30T05:59:29;13.52;;;8.10;;
47309;SDS011;33046;52.270;6.832;2023-09-30T06:01:36;11.32;;;7.30;;
47309;SDS011;33046;52.270;6.832;2023-09-30T06:03:43;9.93;;;6.90;;
47309;SDS011;33046;52.270;6.832;2023-09-30T06:05:51;12.00;;;6.55;;
47309;SDS011;33046;52.270;6.832;2023-09-30T06:07:58;11.70;;;6.07;;
47309;SDS011;33046;52.270;6.832;2023-09-30T06:10:06;11.35;;;7.63;;
47309;SDS011;33046;52.270;6.832;2023-09-30T06:12:15;13.32;;;7.35;;
47309;SDS011;33046;52.270;6.832;2023-09-30T06:14:22;9.88;;;5.82;;
47309;SDS011;33046;52.270;6.832;2023-09-30T06:16:28;11.90;;;6.38;;
47309;SDS011;33046;52.270;6.832;2023-09-30T06:18:35;10.10;;;6.03;;
47309;SDS011;33046;52.270;6.832;2023-09-30T06:20:42;10.05;;;7.85;;
47309;SDS011;33046;52.270;6.832;2023-09-30T06:22:49;8.85;;;6.05;;
47309;SDS011;33046;52.270;6.832;2023-09-30T06:25:07;12.77;;;7.47;;
47309;SDS011;33046;52.270;6.832;2023-09-30T06:27:18;10.57;;;6.63;;
47309;SDS011;33046;52.270;6.832;2023-09-30T06:29:25;14.15;;;6.90;;
47309;SDS011;33046;52.270;6.832;2023-09-30T06:31:32;10.27;;;7.05;;
47309;SDS011;33046;52.270;6.832;2023-09-30T06:33:39;16.60;;;8.52;;
47309;SDS011;33046;52.270;6.832;2023-09-30T06:35:46;9.73;;;7.03;;
47309;SDS011;33046;52.270;6.832;2023-09-30T06:37:53;9.38;;;6.32;;
47309;SDS011;33046;52.270;6.832;2023-09-30T06:40:00;11.48;;;7.53;;
47309;SDS011;33046;52.270;6.832;2023-09-30T06:42:07;13.60;;;7.82;;
47309;SDS011;33046;52.270;6.832;2023-09-30T06:44:15;9.02;;;6.85;;
47309;SDS011;33046;52.270;6.832;2023-09-30T06:46:22;13.18;;;7.55;;
47309;SDS011;33046;52.270;6.832;2023-09-30T06:48:29;10.40;;;6.88;;
47309;SDS011;33046;52.270;6.832;2023-09-30T06:50:35;10.48;;;7.50;;
47309;SDS011;33046;52.270;6.832;2023-09-30T06:52:43;12.68;;;7.63;;
47309;SDS011;33046;52.270;6.832;2023-09-30T06:54:50;11.52;;;8.52;;
47309;SDS011;33046;52.270;6.832;2023-09-30T06:56:57;12.88;;;9.15;;
47309;SDS011;33046;52.270;6.832;2023-09-30T06:59:04;12.77;;;8.48;;
47309;SDS011;33046;52.270;6.832;2023-09-30T07:01:15;10.23;;;7.53;;
47309;SDS011;33046;52.270;6.832;2023-09-30T07:03:22;10.60;;;6.88;;
47309;SDS011;33046;52.270;6.832;2023-09-30T07:05:31;14.82;;;8.57;;
47309;SDS011;33046;52.270;6.832;2023-09-30T07:07:38;12.48;;;8.18;;
47309;SDS011;33046;52.270;6.832;2023-09-30T07:09:45;12.52;;;8.20;;
47309;SDS011;33046;52.270;6.832;2023-09-30T07:11:52;15.32;;;8.85;;
47309;SDS011;33046;52.270;6.832;2023-09-30T07:13:59;10.90;;;8.07;;
47309;SDS011;33046;52.270;6.832;2023-09-30T07:16:06;12.77;;;8.20;;
47309;SDS011;33046;52.270;6.832;2023-09-30T07:18:14;11.60;;;8.40;;
47309;SDS011;33046;52.270;6.832;2023-09-30T07:20:21;12.93;;;8.68;;
47309;SDS011;33046;52.270;6.832;2023-09-30T07:22:28;12.15;;;8.93;;
47309;SDS011;33046;52.270;6.832;2023-09-30T07:24:39;13.02;;;9.52;;
47309;SDS011;33046;52.270;6.832;2023-09-30T07:26:46;12.82;;;8.88;;
47309;SDS011;33046;52.270;6.832;2023-09-30T07:28:52;15.68;;;9.00;;
47309;SDS011;33046;52.270;6.832;2023-09-30T07:30:59;10.52;;;8.50;;
47309;SDS011;33046;52.270;6.832;2023-09-30T07:33:06;15.23;;;9.23;;
47309;SDS011;33046;52.270;6.832;2023-09-30T07:35:15;16.60;;;10.13;;
47309;SDS011;33046;52.270;6.832;2023-09-30T07:37:22;11.57;;;8.23;;
47309;SDS011;33046;52.270;6.832;2023-09-30T07:39:29;14.98;;;8.40;;
47309;SDS011;33046;52.270;6.832;2023-09-30T07:41:36;12.23;;;8.25;;
47309;SDS011;33046;52.270;6.832;2023-09-30T07:43:42;12.07;;;8.45;;
47309;SDS011;33046;52.270;6.832;2023-09-30T07:45:49;13.65;;;8.68;;
47309;SDS011;33046;52.270;6.832;2023-09-30T07:47:56;13.63;;;8.93;;
47309;SDS011;33046;52.270;6.832;2023-09-30T07:50:03;13.18;;;8.88;;
47309;SDS011;33046;52.270;6.832;2023-09-30T07:52:12;19.08;;;10.10;;
47309;SDS011;33046;52.270;6.832;2023-09-30T07:54:19;13.57;;;9.38;;
47309;SDS011;33046;52.270;6.832;2023-09-30T07:56:35;12.70;;;8.95;;
47309;SDS011;33046;52.270;6.832;2023-09-30T07:58:42;18.27;;;9.18;;
47309;SDS011;33046;52.270;6.832;2023-09-30T08:00:49;10.68;;;8.65;;
47309;SDS011;33046;52.270;6.832;2023-09-30T08:02:56;15.95;;;9.20;;
47309;SDS011;33046;52.270;6.832;2023-09-30T08:05:03;14.38;;;8.27;;
47309;SDS011;33046;52.270;6.832;2023-09-30T08:07:13;13.90;;;9.10;;
47309;SDS011;33046;52.270;6.832;2023-09-30T08:09:20;13.35;;;8.63;;
47309;SDS011;33046;52.270;6.832;2023-09-30T08:11:27;14.30;;;9.93;;
47309;SDS011;33046;52.270;6.832;2023-09-30T08:13:33;14.27;;;9.32;;
47309;SDS011;33046;52.270;6.832;2023-09-30T08:15:40;15.18;;;9.48;;
47309;SDS011;33046;52.270;6.832;2023-09-30T08:17:47;16.48;;;10.90;;
47309;SDS011;33046;52.270;6.832;2023-09-30T08:19:54;15.18;;;8.45;;
47309;SDS011;33046;52.270;6.832;2023-09-30T08:22:01;18.30;;;9.23;;
47309;SDS011;33046;52.270;6.832;2023-09-30T08:24:09;16.20;;;9.15;;
47309;SDS011;33046;52.270;6.832;2023-09-30T08:26:16;19.10;;;8.75;;
47309;SDS011;33046;52.270;6.832;2023-09-30T08:28:23;16.48;;;9.00;;
47309;SDS011;33046;52.270;6.832;2023-09-30T08:30:30;18.52;;;10.13;;
47309;SDS011;33046;52.270;6.832;2023-09-30T08:32:38;12.93;;;9.32;;
47309;SDS011;33046;52.270;6.832;2023-09-30T08:34:45;11.25;;;7.85;;
47309;SDS011;33046;52.270;6.832;2023-09-30T08:36:52;15.40;;;8.02;;
47309;SDS011;33046;52.270;6.832;2023-09-30T08:38:59;11.75;;;7.55;;
47309;SDS011;33046;52.270;6.832;2023-09-30T08:41:07;13.25;;;8.35;;
47309;SDS011;33046;52.270;6.832;2023-09-30T08:43:15;16.13;;;8.55;;
47309;SDS011;33046;52.270;6.832;2023-09-30T08:45:28;11.85;;;9.27;;
47309;SDS011;33046;52.270;6.832;2023-09-30T08:47:36;14.23;;;8.13;;
47309;SDS011;33046;52.270;6.832;2023-09-30T08:49:43;15.65;;;9.30;;
47309;SDS011;33046;52.270;6.832;2023-09-30T08:51:50;13.85;;;8.05;;
47309;SDS011;33046;52.270;6.832;2023-09-30T08:53:57;14.13;;;8.23;;
47309;SDS011;33046;52.270;6.832;2023-09-30T08:56:07;16.33;;;7.88;;
47309;SDS011;33046;52.270;6.832;2023-09-30T08:58:15;13.27;;;8.00;;
47309;SDS011;33046;52.270;6.832;2023-09-30T09:02:56;10.98;;;7.20;;
47309;SDS011;33046;52.270;6.832;2023-09-30T09:05:03;14.18;;;8.05;;
47309;SDS011;33046;52.270;6.832;2023-09-30T09:07:10;12.77;;;7.38;;
47309;SDS011;33046;52.270;6.832;2023-09-30T09:09:17;11.80;;;6.70;;
47309;SDS011;33046;52.270;6.832;2023-09-30T09:11:26;15.25;;;7.55;;
47309;SDS011;33046;52.270;6.832;2023-09-30T09:13:44;11.35;;;6.68;;
47309;SDS011;33046;52.270;6.832;2023-09-30T09:16:05;15.25;;;7.30;;
47309;SDS011;33046;52.270;6.832;2023-09-30T09:18:12;11.85;;;6.82;;
47309;SDS011;33046;52.270;6.832;2023-09-30T09:20:36;12.73;;;7.75;;
47309;SDS011;33046;52.270;6.832;2023-09-30T09:22:44;13.43;;;6.80;;
47309;SDS011;33046;52.270;6.832;2023-09-30T09:24:51;13.00;;;7.25;;
47309;SDS011;33046;52.270;6.832;2023-09-30T09:27:05;12.73;;;6.97;;
47309;SDS011;33046;52.270;6.832;2023-09-30T09:29:13;12.63;;;6.70;;
47309;SDS011;33046;52.270;6.832;2023-09-30T09:31:23;10.13;;;6.40;;
47309;SDS011;33046;52.270;6.832;2023-09-30T09:33:34;10.27;;;6.40;;
47309;SDS011;33046;52.270;6.832;2023-09-30T09:35:42;10.48;;;6.40;;
47309;SDS011;33046;52.270;6.832;2023-09-30T09:37:57;11.45;;;6.30;;
47309;SDS011;33046;52.270;6.832;2023-09-30T09:40:05;15.18;;;7.32;;
47309;SDS011;33046;52.270;6.832;2023-09-30T09:42:15;10.00;;;6.10;;
47309;SDS011;33046;52.270;6.832;2023-09-30T09:44:30;16.13;;;7.05;;
47309;SDS011;33046;52.270;6.832;2023-09-30T09:46:40;9.95;;;6.13;;
47309;SDS011;33046;52.270;6.832;2023-09-30T09:48:47;13.20;;;6.05;;
47309;SDS011;33046;52.270;6.832;2023-09-30T09:50:54;10.75;;;6.60;;
47309;SDS011;33046;52.270;6.832;2023-09-30T09:53:01;10.25;;;6.97;;
47309;SDS011;33046;52.270;6.832;2023-09-30T09:55:11;15.82;;;7.85;;
47309;SDS011;33046;52.270;6.832;2023-09-30T09:57:19;8.10;;;6.00;;
47309;SDS011;33046;52.270;6.832;2023-09-30T09:59:26;12.05;;;6.13;;
47309;SDS011;33046;52.270;6.832;2023-09-30T10:01:34;11.45;;;4.88;;
47309;SDS011;33046;52.270;6.832;2023-09-30T10:03:41;9.75;;;5.43;;
47309;SDS011;33046;52.270;6.832;2023-09-30T10:05:48;10.05;;;4.93;;
47309;SDS011;33046;52.270;6.832;2023-09-30T10:07:57;9.50;;;5.18;;
47309;SDS011;33046;52.270;6.832;2023-09-30T10:10:13;7.15;;;4.65;;
47309;SDS011;33046;52.270;6.832;2023-09-30T10:12:24;8.82;;;4.60;;
47309;SDS011;33046;52.270;6.832;2023-09-30T10:14:32;9.93;;;5.50;;
47309;SDS011;33046;52.270;6.832;2023-09-30T10:16:49;9.60;;;5.47;;
47309;SDS011;33046;52.270;6.832;2023-09-30T10:19:06;9.27;;;5.15;;
47309;SDS011;33046;52.270;6.832;2023-09-30T10:21:14;8.82;;;4.85;;
47309;SDS011;33046;52.270;6.832;2023-09-30T10:23:24;8.30;;;4.25;;
47309;SDS011;33046;52.270;6.832;2023-09-30T10:25:32;8.70;;;4.03;;
47309;SDS011;33046;52.270;6.832;2023-09-30T10:27:41;11.15;;;5.03;;
47309;SDS011;33046;52.270;6.832;2023-09-30T10:29:48;9.40;;;3.10;;
47309;SDS011;33046;52.270;6.832;2023-09-30T10:32:00;7.88;;;3.83;;
47309;SDS011;33046;52.270;6.832;2023-09-30T10:36:38;10.73;;;4.18;;
47309;SDS011;33046;52.270;6.832;2023-09-30T10:38:46;9.18;;;4.13;;
47309;SDS011;33046;52.270;6.832;2023-09-30T10:40:53;8.05;;;5.05;;
47309;SDS011;33046;52.270;6.832;2023-09-30T10:43:01;12.77;;;4.28;;
47309;SDS011;33046;52.270;6.832;2023-09-30T10:45:14;9.18;;;4.13;;
47309;SDS011;33046;52.270;6.832;2023-09-30T10:47:49;7.57;;;2.85;;
47309;SDS011;33046;52.270;6.832;2023-09-30T10:49:56;7.93;;;2.58;;
47309;SDS011;33046;52.270;6.832;2023-09-30T10:52:03;15.70;;;4.85;;
47309;SDS011;33046;52.270;6.832;2023-09-30T10:54:10;5.82;;;3.60;;
47309;SDS011;33046;52.270;6.832;2023-09-30T10:56:18;9.82;;;3.63;;
47309;SDS011;33046;52.270;6.832;2023-09-30T10:58:39;7.90;;;3.95;;
47309;SDS011;33046;52.270;6.832;2023-09-30T11:00:53;13.20;;;4.00;;
47309;SDS011;33046;52.270;6.832;2023-09-30T11:03:01;9.48;;;2.97;;
47309;SDS011;33046;52.270;6.832;2023-09-30T11:05:08;6.68;;;2.80;;
47309;SDS011;33046;52.270;6.832;2023-09-30T11:07:18;7.22;;;3.53;;
47309;SDS011;33046;52.270;6.832;2023-09-30T11:09:29;6.25;;;2.65;;
47309;SDS011;33046;52.270;6.832;2023-09-30T11:11:40;7.70;;;2.53;;
47309;SDS011;33046;52.270;6.832;2023-09-30T11:13:49;7.40;;;2.35;;
47309;SDS011;33046;52.270;6.832;2023-09-30T11:15:59;8.00;;;2.70;;
47309;SDS011;33046;52.270;6.832;2023-09-30T11:18:13;9.10;;;2.95;;
47309;SDS011;33046;52.270;6.832;2023-09-30T11:20:20;7.28;;;2.63;;
47309;SDS011;33046;52.270;6.832;2023-09-30T11:22:27;8.35;;;2.30;;
47309;SDS011;33046;52.270;6.832;2023-09-30T11:24:35;7.22;;;1.95;;
47309;SDS011;33046;52.270;6.832;2023-09-30T11:26:42;4.93;;;1.65;;
47309;SDS011;33046;52.270;6.832;2023-09-30T11:28:50;9.50;;;1.83;;
47309;SDS011;33046;52.270;6.832;2023-09-30T11:30:58;5.28;;;1.77;;
47309;SDS011;33046;52.270;6.832;2023-09-30T11:33:05;4.93;;;1.80;;
47309;SDS011;33046;52.270;6.832;2023-09-30T11:35:21;6.45;;;1.65;;
47309;SDS011;33046;52.270;6.832;2023-09-30T11:37:30;3.78;;;1.50;;
47309;SDS011;33046;52.270;6.832;2023-09-30T11:39:37;8.35;;;1.70;;
47309;SDS011;33046;52.270;6.832;2023-09-30T11:41:44;4.50;;;1.60;;
47309;SDS011;33046;52.270;6.832;2023-09-30T11:43:59;6.47;;;1.73;;
47309;SDS011;33046;52.270;6.832;2023-09-30T11:46:07;9.90;;;1.60;;
47309;SDS011;33046;52.270;6.832;2023-09-30T11:48:16;9.23;;;1.45;;
47309;SDS011;33046;52.270;6.832;2023-09-30T11:50:24;3.28;;;1.30;;
47309;SDS011;33046;52.270;6.832;2023-09-30T11:52:31;4.28;;;1.13;;
47309;SDS011;33046;52.270;6.832;2023-09-30T11:54:38;6.38;;;1.52;;
47309;SDS011;33046;52.270;6.832;2023-09-30T11:56:45;5.50;;;1.20;;
47309;SDS011;33046;52.270;6.832;2023-09-30T11:58:52;8.45;;;1.38;;
47309;SDS011;33046;52.270;6.832;2023-09-30T12:01:00;10.30;;;2.35;;
47309;SDS011;33046;52.270;6.832;2023-09-30T12:03:07;6.05;;;1.75;;
47309;SDS011;33046;52.270;6.832;2023-09-30T12:05:14;5.63;;;1.30;;
47309;SDS011;33046;52.270;6.832;2023-09-30T12:07:21;6.00;;;1.70;;
47309;SDS011;33046;52.270;6.832;2023-09-30T12:09:28;5.22;;;1.50;;
47309;SDS011;33046;52.270;6.832;2023-09-30T12:11:35;6.80;;;1.50;;
47309;SDS011;33046;52.270;6.832;2023-09-30T12:13:42;5.00;;;2.13;;
47309;SDS011;33046;52.270;6.832;2023-09-30T12:15:49;5.60;;;1.33;;
47309;SDS011;33046;52.270;6.832;2023-09-30T12:17:57;5.72;;;2.00;;
47309;SDS011;33046;52.270;6.832;2023-09-30T12:20:04;5.72;;;2.17;;
47309;SDS011;33046;52.270;6.832;2023-09-30T12:22:12;6.05;;;2.03;;
47309;SDS011;33046;52.270;6.832;2023-09-30T12:24:19;5.82;;;1.50;;
47309;SDS011;33046;52.270;6.832;2023-09-30T12:26:26;8.48;;;1.70;;
47309;SDS011;33046;52.270;6.832;2023-09-30T12:28:32;4.60;;;1.83;;
47309;SDS011;33046;52.270;6.832;2023-09-30T12:30:40;6.60;;;1.60;;
47309;SDS011;33046;52.270;6.832;2023-09-30T12:32:48;4.05;;;1.27;;
47309;SDS011;33046;52.270;6.832;2023-09-30T12:34:56;10.70;;;2.28;;
47309;SDS011;33046;52.270;6.832;2023-09-30T12:37:03;4.82;;;1.40;;
47309;SDS011;33046;52.270;6.832;2023-09-30T12:39:10;8.82;;;1.92;;
47309;SDS011;33046;52.270;6.832;2023-09-30T12:41:17;5.70;;;1.13;;
47309;SDS011;33046;52.270;6.832;2023-09-30T12:43:24;7.78;;;2.67;;
47309;SDS011;33046;52.270;6.832;2023-09-30T12:45:31;5.32;;;2.10;;
47309;SDS011;33046;52.270;6.832;2023-09-30T12:47:38;7.57;;;1.45;;
47309;SDS011;33046;52.270;6.832;2023-09-30T12:49:45;7.53;;;1.40;;
47309;SDS011;33046;52.270;6.832;2023-09-30T12:51:53;8.43;;;2.13;;
47309;SDS011;33046;52.270;6.832;2023-09-30T12:54:00;4.43;;;1.60;;
47309;SDS011;33046;52.270;6.832;2023-09-30T12:56:07;4.63;;;1.10;;
47309;SDS011;33046;52.270;6.832;2023-09-30T12:58:14;6.65;;;1.20;;
47309;SDS011;33046;52.270;6.832;2023-09-30T13:00:21;7.03;;;1.83;;
47309;SDS011;33046;52.270;6.832;2023-09-30T13:02:28;6.22;;;1.63;;
47309;SDS011;33046;52.270;6.832;2023-09-30T13:04:36;3.80;;;1.02;;
47309;SDS011;33046;52.270;6.832;2023-09-30T13:06:43;5.85;;;1.30;;
47309;SDS011;33046;52.270;6.832;2023-09-30T13:08:52;8.90;;;1.98;;
47309;SDS011;33046;52.270;6.832;2023-09-30T13:10:58;4.85;;;1.83;;